createdAt,value
2023-11-07T00:00:00.215Z,88.66
2023-11-07T00:00:58.424Z,88.66
2023-11-07T00:01:59.391Z,88.66
2023-11-07T00:02:58.473Z,88.76
2023-11-07T00:03:58.532Z,88.86
2023-11-07T00:04:58.406Z,88.96
2023-11-07T00:05:58.527Z,89.07
2023-11-07T00:06:58.368Z,89.07
2023-11-07T00:08:00.026Z,89.07
2023-11-07T00:08:58.334Z,89.07
2023-11-07T00:09:59.315Z,88.96
2023-11-07T00:10:58.284Z,88.90
2023-11-07T00:11:58.332Z,88.90
2023-11-07T00:12:58.304Z,89.01
2023-11-07T00:13:58.283Z,89.21
2023-11-07T00:14:58.335Z,89.42
2023-11-07T00:15:58.274Z,89.52
2023-11-07T00:16:58.257Z,89.62
2023-11-07T00:17:58.463Z,89.83
2023-11-07T00:18:58.403Z,89.93
2023-11-07T00:19:58.224Z,90.03
2023-11-07T00:20:58.231Z,90.03
2023-11-07T00:21:59.096Z,90.03
2023-11-07T00:22:58.158Z,89.93
2023-11-07T00:23:58.252Z,89.93
2023-11-07T00:24:58.126Z,89.93
2023-11-07T00:25:58.178Z,90.03
2023-11-07T00:26:58.126Z,89.93
2023-11-07T00:27:58.168Z,89.93
2023-11-07T00:28:58.145Z,90.03
2023-11-07T00:29:58.152Z,90.03
2023-11-07T00:30:58.138Z,90.03
2023-11-07T00:31:58.352Z,90.14
2023-11-07T00:32:58.175Z,90.24
2023-11-07T00:33:58.274Z,90.24
2023-11-07T00:34:58.057Z,90.24
2023-11-07T00:35:58.097Z,90.34
2023-11-07T00:36:58.004Z,90.44
2023-11-07T00:37:58.025Z,90.55
2023-11-07T00:38:58.075Z,90.65
2023-11-07T00:39:57.997Z,90.65
2023-11-07T00:40:58.011Z,90.65
2023-11-07T00:41:58.015Z,90.55
2023-11-07T00:42:58.982Z,90.55
2023-11-07T00:43:57.993Z,90.44
2023-11-07T00:44:57.959Z,90.44
2023-11-07T00:45:57.956Z,90.55
2023-11-07T00:46:57.901Z,90.44
2023-11-07T00:47:57.962Z,90.44
2023-11-07T00:48:57.968Z,90.34
2023-11-07T00:49:57.880Z,90.44
2023-11-07T00:50:57.891Z,90.55
2023-11-07T00:51:57.858Z,90.65
2023-11-07T00:52:57.837Z,90.55
2023-11-07T00:53:57.854Z,90.65
2023-11-07T00:54:57.794Z,90.55
2023-11-07T00:55:57.846Z,90.55
2023-11-07T00:56:57.798Z,90.55
2023-11-07T00:57:57.786Z,90.55
2023-11-07T00:58:57.763Z,90.44
2023-11-07T00:59:57.830Z,90.59
2023-11-07T01:00:57.762Z,90.80
2023-11-07T01:01:57.749Z,90.80
2023-11-07T01:02:57.841Z,90.89
2023-11-07T01:03:57.898Z,90.89
2023-11-07T01:04:57.729Z,91.10
2023-11-07T01:05:57.775Z,91.10
2023-11-07T01:06:57.728Z,91.00
2023-11-07T01:07:57.715Z,91.00
2023-11-07T01:08:57.710Z,91.06
2023-11-07T01:09:57.694Z,91.16
2023-11-07T01:10:58.603Z,91.06
2023-11-07T01:11:57.733Z,91.06
2023-11-07T01:12:57.647Z,90.95
2023-11-07T01:13:58.613Z,90.85
2023-11-07T01:14:57.663Z,90.85
2023-11-07T01:15:57.594Z,90.85
2023-11-07T01:16:58.535Z,90.85
2023-11-07T01:17:57.659Z,90.95
2023-11-07T01:18:57.672Z,91.06
2023-11-07T01:19:57.545Z,91.06
2023-11-07T01:20:57.573Z,91.06
2023-11-07T01:21:57.512Z,91.06
2023-11-07T01:22:57.503Z,91.16
2023-11-07T01:23:57.510Z,91.16
2023-11-07T01:24:57.476Z,91.06
2023-11-07T01:25:57.503Z,91.06
2023-11-07T01:26:57.516Z,90.95
2023-11-07T01:27:57.484Z,90.85
2023-11-07T01:28:57.444Z,90.75
2023-11-07T01:29:57.470Z,90.75
2023-11-07T01:30:57.533Z,90.75
2023-11-07T01:31:57.438Z,90.85
2023-11-07T01:32:58.450Z,90.85
2023-11-07T01:33:57.481Z,90.85
2023-11-07T01:34:57.372Z,90.85
2023-11-07T01:35:57.398Z,90.85
2023-11-07T01:36:57.380Z,90.85
2023-11-07T01:37:57.366Z,90.75
2023-11-07T01:38:57.339Z,90.85
2023-11-07T01:39:57.358Z,90.95
2023-11-07T01:40:57.291Z,90.95
2023-11-07T01:41:57.359Z,90.85
2023-11-07T01:42:57.306Z,90.85
2023-11-07T01:43:57.295Z,90.95
2023-11-07T01:44:57.308Z,91.06
2023-11-07T01:45:57.265Z,91.06
2023-11-07T01:46:57.907Z,90.95
2023-11-07T01:47:57.276Z,90.95
2023-11-07T01:48:57.360Z,90.95
2023-11-07T01:49:57.211Z,90.95
2023-11-07T01:50:57.218Z,90.95
2023-11-07T01:51:57.207Z,90.95
2023-11-07T01:52:57.161Z,90.95
2023-11-07T01:53:57.196Z,90.85
2023-11-07T01:54:57.155Z,90.95
2023-11-07T01:55:57.143Z,90.85
2023-11-07T01:56:57.160Z,90.85
2023-11-07T01:57:57.155Z,90.95
2023-11-07T01:58:57.081Z,90.85
2023-11-07T01:59:57.210Z,90.85
2023-11-07T02:00:57.074Z,90.65
2023-11-07T02:01:57.098Z,90.65
2023-11-07T02:02:57.118Z,90.55
2023-11-07T02:03:57.222Z,90.55
2023-11-07T02:04:57.105Z,90.55
2023-11-07T02:05:57.793Z,90.55
2023-11-07T02:06:57.021Z,90.55
2023-11-07T02:07:57.040Z,90.55
2023-11-07T02:08:56.989Z,90.44
2023-11-07T02:09:57.016Z,90.55
2023-11-07T02:10:56.962Z,90.55
2023-11-07T02:11:57.022Z,90.65
2023-11-07T02:12:56.929Z,90.65
2023-11-07T02:13:57.033Z,90.65
2023-11-07T02:14:56.914Z,90.65
2023-11-07T02:15:56.972Z,90.65
2023-11-07T02:16:56.912Z,90.75
2023-11-07T02:17:57.065Z,90.75
2023-11-07T02:18:56.999Z,90.75
2023-11-07T02:19:56.872Z,90.75
2023-11-07T02:20:56.929Z,90.85
2023-11-07T02:21:56.847Z,90.85
2023-11-07T02:22:56.880Z,90.85
2023-11-07T02:23:56.863Z,90.71
2023-11-07T02:24:56.812Z,90.71
2023-11-07T02:25:57.775Z,90.71
2023-11-07T02:26:56.830Z,90.61
2023-11-07T02:27:56.848Z,90.61
2023-11-07T02:28:56.748Z,90.50
2023-11-07T02:29:56.842Z,90.50
2023-11-07T02:30:56.761Z,90.61
2023-11-07T02:31:56.751Z,90.61
2023-11-07T02:32:56.820Z,90.61
2023-11-07T02:33:56.856Z,90.61
2023-11-07T02:34:56.701Z,90.61
2023-11-07T02:35:56.728Z,90.61
2023-11-07T02:36:56.688Z,90.50
2023-11-07T02:37:56.732Z,90.50
2023-11-07T02:38:56.671Z,90.50
2023-11-07T02:39:56.669Z,90.50
2023-11-07T02:40:57.583Z,90.30
2023-11-07T02:41:56.661Z,90.30
2023-11-07T02:42:56.587Z,90.20
2023-11-07T02:43:56.637Z,90.20
2023-11-07T02:44:56.624Z,90.20
2023-11-07T02:45:56.590Z,90.30
2023-11-07T02:46:56.546Z,90.30
2023-11-07T02:47:56.665Z,90.40
2023-11-07T02:48:56.644Z,90.40
2023-11-07T02:49:57.342Z,90.50
2023-11-07T02:50:57.737Z,90.40
2023-11-07T02:51:56.535Z,90.40
2023-11-07T02:52:56.492Z,90.50
2023-11-07T02:53:58.559Z,90.61
2023-11-07T02:54:56.476Z,90.71
2023-11-07T02:55:56.621Z,90.71
2023-11-07T02:56:56.528Z,90.71
2023-11-07T02:57:56.451Z,90.71
2023-11-07T02:58:56.477Z,90.71
2023-11-07T02:59:56.498Z,90.71
2023-11-07T03:00:56.397Z,90.56
2023-11-07T03:01:56.432Z,90.56
2023-11-07T03:02:56.438Z,90.46
2023-11-07T03:03:56.529Z,90.46
2023-11-07T03:04:58.827Z,90.46
2023-11-07T03:05:56.504Z,90.36
2023-11-07T03:06:56.343Z,90.16
2023-11-07T03:07:56.346Z,90.16
2023-11-07T03:08:56.319Z,90.05
2023-11-07T03:09:56.387Z,90.16
2023-11-07T03:10:56.309Z,90.05
2023-11-07T03:11:56.371Z,89.95
2023-11-07T03:12:56.256Z,89.81
2023-11-07T03:13:56.275Z,89.70
2023-11-07T03:14:56.268Z,89.60
2023-11-07T03:15:56.279Z,89.60
2023-11-07T03:16:56.232Z,89.60
2023-11-07T03:17:56.428Z,89.60
2023-11-07T03:18:56.378Z,89.60
2023-11-07T03:19:56.247Z,89.50
2023-11-07T03:20:56.251Z,89.39
2023-11-07T03:21:56.872Z,89.39
2023-11-07T03:22:56.155Z,89.39
2023-11-07T03:23:56.201Z,89.39
2023-11-07T03:24:56.174Z,89.39
2023-11-07T03:25:56.151Z,89.50
2023-11-07T03:26:57.124Z,89.39
2023-11-07T03:27:56.162Z,89.39
2023-11-07T03:28:56.165Z,89.39
2023-11-07T03:29:56.218Z,89.39
2023-11-07T03:30:56.124Z,89.39
2023-11-07T03:31:56.105Z,89.39
2023-11-07T03:32:56.136Z,89.50
2023-11-07T03:33:56.127Z,89.39
2023-11-07T03:34:56.041Z,89.50
2023-11-07T03:35:56.086Z,89.50
2023-11-07T03:36:56.019Z,89.60
2023-11-07T03:37:56.039Z,89.60
2023-11-07T03:38:56.014Z,89.70
2023-11-07T03:39:55.999Z,89.70
2023-11-07T03:40:56.006Z,89.81
2023-11-07T03:41:55.988Z,89.81
2023-11-07T03:42:56.633Z,89.81
2023-11-07T03:43:55.957Z,89.90
2023-11-07T03:44:55.947Z,89.81
2023-11-07T03:45:55.988Z,89.60
2023-11-07T03:46:55.906Z,89.60
2023-11-07T03:47:56.009Z,89.60
2023-11-07T03:48:56.964Z,89.70
2023-11-07T03:49:55.916Z,89.60
2023-11-07T03:50:55.905Z,89.50
2023-11-07T03:51:55.864Z,89.39
2023-11-07T03:52:55.830Z,89.29
2023-11-07T03:53:55.860Z,89.19
2023-11-07T03:54:55.795Z,89.09
2023-11-07T03:55:55.839Z,88.98
2023-11-07T03:56:55.852Z,88.88
2023-11-07T03:57:55.799Z,88.88
2023-11-07T03:58:55.759Z,88.88
2023-11-07T03:59:55.788Z,88.78
2023-11-07T04:00:55.729Z,88.78
2023-11-07T04:01:55.809Z,88.78
2023-11-07T04:02:55.906Z,88.78
2023-11-07T04:03:55.813Z,88.68
2023-11-07T04:04:55.715Z,88.68
2023-11-07T04:05:55.839Z,88.68
2023-11-07T04:06:55.742Z,88.57
2023-11-07T04:07:55.695Z,88.57
2023-11-07T04:08:55.685Z,88.68
2023-11-07T04:09:55.656Z,88.68
2023-11-07T04:10:56.637Z,88.57
2023-11-07T04:11:55.654Z,88.57
2023-11-07T04:12:55.625Z,88.68
2023-11-07T04:13:55.636Z,88.68
2023-11-07T04:14:55.660Z,88.57
2023-11-07T04:15:55.588Z,88.57
2023-11-07T04:16:55.577Z,88.57
2023-11-07T04:17:55.786Z,88.47
2023-11-07T04:18:55.673Z,88.57
2023-11-07T04:19:55.543Z,88.68
2023-11-07T04:20:55.548Z,88.78
2023-11-07T04:21:55.572Z,88.68
2023-11-07T04:22:55.525Z,88.68
2023-11-07T04:23:55.551Z,88.68
2023-11-07T04:24:55.521Z,88.78
2023-11-07T04:25:55.474Z,88.68
2023-11-07T04:26:55.542Z,88.68
2023-11-07T04:27:55.479Z,88.78
2023-11-07T04:28:55.488Z,88.68
2023-11-07T04:29:55.521Z,88.78
2023-11-07T04:30:55.482Z,88.78
2023-11-07T04:31:55.409Z,88.78
2023-11-07T04:32:56.489Z,88.78
2023-11-07T04:33:55.476Z,88.78
2023-11-07T04:34:55.388Z,88.78
2023-11-07T04:35:55.387Z,88.78
2023-11-07T04:36:55.360Z,88.78
2023-11-07T04:37:55.411Z,88.88
2023-11-07T04:38:55.384Z,88.78
2023-11-07T04:39:56.238Z,88.88
2023-11-07T04:40:55.366Z,88.88
2023-11-07T04:41:55.318Z,88.88
2023-11-07T04:42:55.418Z,88.88
2023-11-07T04:43:55.267Z,88.88
2023-11-07T04:44:55.329Z,88.98
2023-11-07T04:45:55.286Z,89.09
2023-11-07T04:46:55.267Z,89.19
2023-11-07T04:47:55.342Z,89.39
2023-11-07T04:48:55.394Z,89.39
2023-11-07T04:49:55.216Z,89.50
2023-11-07T04:50:55.226Z,89.60
2023-11-07T04:51:55.165Z,89.60
2023-11-07T04:52:55.193Z,89.60
2023-11-07T04:53:55.250Z,89.70
2023-11-07T04:54:55.175Z,89.70
2023-11-07T04:55:56.097Z,89.81
2023-11-07T04:56:55.170Z,89.81
2023-11-07T04:57:55.188Z,89.90
2023-11-07T04:58:57.580Z,89.90
2023-11-07T04:59:55.186Z,89.90
2023-11-07T05:00:55.124Z,90.01
2023-11-07T05:01:55.235Z,90.01
2023-11-07T05:02:55.186Z,90.11
2023-11-07T05:03:55.402Z,90.11
2023-11-07T05:04:57.314Z,90.22
2023-11-07T05:05:55.095Z,90.32
2023-11-07T05:06:55.116Z,90.32
2023-11-07T05:07:55.014Z,90.32
2023-11-07T05:08:55.035Z,90.42
2023-11-07T05:09:55.009Z,90.52
2023-11-07T05:10:55.011Z,90.42
2023-11-07T05:11:55.051Z,90.52
2023-11-07T05:12:54.988Z,90.52
2023-11-07T05:13:54.959Z,90.42
2023-11-07T05:14:54.982Z,90.52
2023-11-07T05:15:54.981Z,90.62
2023-11-07T05:16:54.941Z,90.62
2023-11-07T05:17:54.979Z,90.62
2023-11-07T05:18:55.109Z,90.52
2023-11-07T05:19:54.875Z,90.52
2023-11-07T05:20:54.938Z,90.52
2023-11-07T05:21:54.879Z,90.42
2023-11-07T05:22:54.937Z,90.22
2023-11-07T05:23:54.867Z,90.22
2023-11-07T05:24:54.848Z,90.22
2023-11-07T05:25:55.081Z,90.11
2023-11-07T05:26:54.864Z,90.11
2023-11-07T05:27:54.888Z,90.01
2023-11-07T05:28:57.026Z,90.01
2023-11-07T05:29:54.836Z,90.01
2023-11-07T05:30:54.785Z,90.11
2023-11-07T05:31:54.760Z,89.90
2023-11-07T05:32:54.852Z,89.90
2023-11-07T05:33:55.026Z,89.81
2023-11-07T05:34:54.751Z,89.81
2023-11-07T05:35:54.729Z,89.81
2023-11-07T05:36:54.753Z,89.70
2023-11-07T05:37:55.678Z,89.70
2023-11-07T05:38:54.834Z,89.70
2023-11-07T05:39:54.685Z,89.70
2023-11-07T05:40:54.715Z,89.70
2023-11-07T05:41:54.719Z,89.70
2023-11-07T05:42:54.654Z,89.70
2023-11-07T05:43:54.625Z,89.60
2023-11-07T05:44:54.675Z,89.60
2023-11-07T05:45:54.603Z,89.70
2023-11-07T05:46:54.665Z,89.70
2023-11-07T05:47:54.684Z,89.81
2023-11-07T05:48:54.909Z,89.70
2023-11-07T05:49:54.590Z,89.70
2023-11-07T05:50:54.596Z,89.81
2023-11-07T05:51:54.532Z,89.81
2023-11-07T05:52:54.621Z,89.81
2023-11-07T05:53:54.637Z,89.81
2023-11-07T05:54:54.529Z,89.90
2023-11-07T05:55:54.500Z,89.90
2023-11-07T05:56:54.530Z,89.81
2023-11-07T05:57:54.473Z,89.90
2023-11-07T05:58:54.495Z,90.05
2023-11-07T05:59:54.454Z,90.05
2023-11-07T06:00:54.445Z,90.16
2023-11-07T06:01:54.487Z,90.16
2023-11-07T06:02:54.606Z,90.26
2023-11-07T06:03:54.491Z,90.26
2023-11-07T06:04:54.420Z,90.26
2023-11-07T06:05:54.413Z,90.36
2023-11-07T06:06:54.379Z,90.36
2023-11-07T06:07:54.346Z,90.36
2023-11-07T06:08:54.435Z,90.36
2023-11-07T06:09:54.334Z,90.46
2023-11-07T06:10:56.328Z,90.56
2023-11-07T06:11:54.301Z,90.56
2023-11-07T06:12:54.355Z,90.67
2023-11-07T06:13:54.298Z,90.77
2023-11-07T06:14:54.359Z,90.77
2023-11-07T06:15:54.281Z,90.77
2023-11-07T06:16:54.277Z,90.87
2023-11-07T06:17:54.607Z,90.87
2023-11-07T06:18:55.239Z,90.87
2023-11-07T06:19:54.224Z,90.87
2023-11-07T06:20:54.245Z,90.87
2023-11-07T06:21:54.179Z,90.87
2023-11-07T06:22:54.869Z,90.91
2023-11-07T06:23:54.220Z,90.91
2023-11-07T06:24:54.260Z,91.38
2023-11-07T06:25:54.249Z,91.49
2023-11-07T06:26:54.197Z,91.38
2023-11-07T06:27:54.112Z,91.12
2023-11-07T06:28:54.198Z,91.12
2023-11-07T06:29:55.073Z,91.12
2023-11-07T06:30:55.074Z,91.22
2023-11-07T06:31:54.068Z,91.33
2023-11-07T06:32:54.108Z,91.53
2023-11-07T06:33:54.146Z,91.53
2023-11-07T06:34:54.065Z,91.63
2023-11-07T06:35:54.097Z,91.63
2023-11-07T06:36:54.061Z,91.59
2023-11-07T06:37:54.011Z,91.69
2023-11-07T06:38:54.432Z,91.80
2023-11-07T06:39:53.996Z,91.80
2023-11-07T06:40:53.984Z,91.90
2023-11-07T06:41:53.987Z,91.90
2023-11-07T06:42:54.181Z,91.90
2023-11-07T06:43:54.628Z,91.90
2023-11-07T06:44:54.616Z,92.00
2023-11-07T06:45:53.968Z,92.00
2023-11-07T06:46:53.966Z,91.90
2023-11-07T06:47:54.050Z,91.90
2023-11-07T06:48:55.751Z,91.59
2023-11-07T06:49:53.876Z,91.49
2023-11-07T06:50:54.754Z,91.38
2023-11-07T06:51:53.874Z,91.28
2023-11-07T06:52:53.889Z,91.18
2023-11-07T06:53:53.860Z,91.08
2023-11-07T06:54:53.839Z,91.08
2023-11-07T06:55:53.830Z,90.97
2023-11-07T06:56:53.827Z,90.87
2023-11-07T06:57:53.832Z,90.77
2023-11-07T06:58:53.815Z,90.77
2023-11-07T06:59:54.733Z,90.77
2023-11-07T07:00:53.806Z,90.67
2023-11-07T07:01:53.745Z,90.67
2023-11-07T07:02:53.804Z,90.77
2023-11-07T07:03:53.839Z,90.67
2023-11-07T07:04:53.723Z,90.67
2023-11-07T07:05:53.776Z,90.67
2023-11-07T07:06:53.705Z,90.67
2023-11-07T07:07:53.722Z,90.67
2023-11-07T07:08:53.739Z,90.67
2023-11-07T07:09:53.648Z,90.67
2023-11-07T07:10:53.685Z,90.77
2023-11-07T07:11:53.695Z,90.77
2023-11-07T07:12:53.715Z,90.77
2023-11-07T07:13:56.169Z,90.77
2023-11-07T07:14:55.290Z,90.77
2023-11-07T07:15:53.600Z,90.67
2023-11-07T07:16:53.634Z,90.67
2023-11-07T07:17:53.696Z,90.46
2023-11-07T07:18:53.736Z,90.46
2023-11-07T07:19:53.529Z,90.42
2023-11-07T07:20:53.683Z,90.32
2023-11-07T07:21:53.527Z,90.22
2023-11-07T07:22:53.570Z,90.11
2023-11-07T07:23:53.643Z,90.01
2023-11-07T07:24:53.530Z,90.01
2023-11-07T07:25:53.468Z,89.81
2023-11-07T07:26:53.553Z,89.81
2023-11-07T07:27:54.857Z,89.81
2023-11-07T07:28:53.819Z,89.81
2023-11-07T07:29:53.475Z,89.81
2023-11-07T07:30:53.511Z,89.81
2023-11-07T07:31:53.418Z,89.90
2023-11-07T07:32:53.645Z,89.81
2023-11-07T07:33:53.501Z,89.81
2023-11-07T07:34:53.435Z,89.90
2023-11-07T07:35:53.607Z,89.81
2023-11-07T07:36:53.364Z,89.81
2023-11-07T07:37:54.173Z,89.81
2023-11-07T07:38:53.439Z,89.70
2023-11-07T07:39:53.342Z,89.66
2023-11-07T07:40:53.342Z,89.70
2023-11-07T07:41:53.310Z,89.66
2023-11-07T07:42:54.468Z,89.56
2023-11-07T07:43:53.306Z,89.56
2023-11-07T07:44:53.338Z,89.56
2023-11-07T07:45:53.294Z,89.56
2023-11-07T07:46:53.266Z,89.56
2023-11-07T07:47:53.356Z,89.56
2023-11-07T07:48:55.311Z,89.45
2023-11-07T07:49:53.203Z,89.36
2023-11-07T07:50:53.365Z,89.45
2023-11-07T07:51:54.090Z,89.45
2023-11-07T07:52:53.209Z,89.36
2023-11-07T07:53:53.218Z,89.36
2023-11-07T07:55:07.143Z,89.36
2023-11-07T07:55:54.223Z,89.45
2023-11-07T07:58:01.939Z,89.45
2023-11-07T07:59:01.681Z,89.45
2023-11-07T08:00:01.666Z,89.45
2023-11-07T08:01:01.625Z,89.56
2023-11-07T08:02:01.728Z,89.66
2023-11-07T08:03:01.669Z,89.76
2023-11-07T08:04:01.627Z,89.87
2023-11-07T08:05:01.601Z,89.97
2023-11-07T08:06:01.605Z,89.97
2023-11-07T08:07:01.585Z,89.97
2023-11-07T08:08:01.538Z,89.92
2023-11-07T08:09:01.593Z,89.92
2023-11-07T08:10:01.534Z,89.92
2023-11-07T08:11:03.237Z,89.62
2023-11-07T08:12:01.672Z,89.31
2023-11-07T08:13:01.525Z,89.31
2023-11-07T08:14:01.492Z,89.42
2023-11-07T08:15:02.510Z,89.31
2023-11-07T08:16:01.472Z,89.31
2023-11-07T08:17:01.450Z,89.21
2023-11-07T08:18:01.622Z,88.86
2023-11-07T08:19:01.532Z,88.56
2023-11-07T08:20:01.437Z,88.31
2023-11-07T08:21:01.483Z,87.79
2023-11-07T08:22:02.067Z,87.79
2023-11-07T08:23:01.394Z,87.55
2023-11-07T08:24:01.402Z,86.94
2023-11-07T08:25:01.397Z,86.83
2023-11-07T08:26:01.416Z,86.94
2023-11-07T08:27:01.436Z,86.73
2023-11-07T08:28:01.526Z,86.73
2023-11-07T08:29:01.325Z,86.53
2023-11-07T08:30:01.345Z,86.53
2023-11-07T08:31:02.254Z,86.53
2023-11-07T08:32:01.317Z,86.63
2023-11-07T08:33:03.011Z,86.53
2023-11-07T08:34:01.388Z,86.63
2023-11-07T08:35:01.275Z,86.53
2023-11-07T08:36:01.332Z,86.43
2023-11-07T08:37:07.257Z,86.43
2023-11-07T08:38:02.235Z,86.73
2023-11-07T08:39:01.246Z,86.73
2023-11-07T08:40:01.234Z,86.83
2023-11-07T08:41:01.189Z,86.63
2023-11-07T08:42:01.166Z,86.73
2023-11-07T08:43:01.216Z,86.77
2023-11-07T08:44:01.163Z,86.63
2023-11-07T08:45:01.334Z,86.77
2023-11-07T08:46:01.123Z,86.63
2023-11-07T08:47:01.134Z,86.22
2023-11-07T08:48:01.248Z,86.12
2023-11-07T08:49:01.247Z,86.16
2023-11-07T08:50:01.080Z,85.91
2023-11-07T08:51:01.134Z,85.61
2023-11-07T08:52:01.081Z,85.61
2023-11-07T08:53:01.064Z,85.71
2023-11-07T08:54:01.065Z,85.50
2023-11-07T08:55:01.056Z,85.20
2023-11-07T08:56:01.008Z,85.10
2023-11-07T08:57:01.077Z,85.10
2023-11-07T08:58:00.983Z,85.20
2023-11-07T08:59:01.032Z,85.10
2023-11-07T09:00:01.030Z,84.89
2023-11-07T09:01:01.913Z,84.89
2023-11-07T09:02:00.964Z,84.69
2023-11-07T09:03:01.104Z,84.89
2023-11-07T09:04:01.078Z,84.95
2023-11-07T09:05:00.992Z,85.16
2023-11-07T09:06:00.954Z,84.85
2023-11-07T09:07:00.937Z,84.95
2023-11-07T09:08:00.882Z,84.85
2023-11-07T09:09:01.889Z,84.85
2023-11-07T09:10:00.892Z,84.95
2023-11-07T09:11:02.837Z,85.16
2023-11-07T09:12:00.867Z,84.95
2023-11-07T09:13:00.863Z,84.85
2023-11-07T09:14:00.864Z,85.16
2023-11-07T09:15:00.938Z,85.16
2023-11-07T09:16:00.786Z,85.10
2023-11-07T09:17:01.472Z,84.79
2023-11-07T09:18:00.898Z,85.10
2023-11-07T09:19:00.952Z,84.89
2023-11-07T09:20:00.752Z,84.79
2023-11-07T09:21:00.895Z,84.89
2023-11-07T09:22:00.731Z,84.89
2023-11-07T09:23:00.751Z,84.89
2023-11-07T09:24:00.762Z,85.10
2023-11-07T09:25:00.748Z,85.20
2023-11-07T09:26:00.715Z,85.30
2023-11-07T09:27:00.739Z,85.40
2023-11-07T09:28:00.661Z,85.20
2023-11-07T09:29:00.712Z,85.10
2023-11-07T09:30:00.741Z,85.30
2023-11-07T09:31:00.643Z,85.40
2023-11-07T09:32:00.616Z,85.20
2023-11-07T09:33:01.118Z,84.99
2023-11-07T09:34:00.788Z,84.79
2023-11-07T09:35:00.653Z,84.79
2023-11-07T09:36:00.602Z,84.89
2023-11-07T09:37:00.592Z,85.10
2023-11-07T09:38:00.571Z,85.10
2023-11-07T09:39:00.641Z,84.89
2023-11-07T09:40:00.576Z,84.99
2023-11-07T09:41:00.571Z,85.10
2023-11-07T09:42:00.657Z,85.30
2023-11-07T09:43:00.531Z,85.10
2023-11-07T09:44:01.353Z,84.55
2023-11-07T09:45:00.510Z,84.75
2023-11-07T09:46:01.153Z,84.75
2023-11-07T09:47:00.460Z,84.44
2023-11-07T09:48:00.691Z,84.55
2023-11-07T09:49:00.541Z,84.65
2023-11-07T09:50:00.435Z,84.14
2023-11-07T09:51:00.510Z,84.28
2023-11-07T09:52:00.435Z,84.38
2023-11-07T09:53:00.419Z,84.48
2023-11-07T09:54:00.402Z,84.69
2023-11-07T09:55:02.333Z,84.58
2023-11-07T09:56:00.367Z,84.58
2023-11-07T09:57:00.386Z,84.99
2023-11-07T09:58:09.364Z,85.10
2023-11-07T09:59:01.319Z,84.99
2023-11-07T10:00:00.465Z,84.58
2023-11-07T10:01:00.287Z,84.28
2023-11-07T10:02:00.340Z,84.38
2023-11-07T10:03:00.412Z,84.58
2023-11-07T10:04:00.569Z,84.89
2023-11-07T10:05:00.433Z,84.89
2023-11-07T10:06:00.338Z,84.99
2023-11-07T10:07:00.560Z,84.89
2023-11-07T10:08:00.254Z,84.99
2023-11-07T10:09:00.617Z,84.85
2023-11-07T10:10:00.404Z,84.95
2023-11-07T10:11:00.210Z,84.85
2023-11-07T10:12:00.997Z,84.69
2023-11-07T10:13:00.264Z,84.95
2023-11-07T10:14:02.139Z,84.99
2023-11-07T10:15:00.249Z,85.16
2023-11-07T10:16:06.779Z,85.26
2023-11-07T10:17:01.125Z,85.67
2023-11-07T10:18:02.345Z,86.08
2023-11-07T10:19:02.156Z,86.18
2023-11-07T10:20:00.149Z,85.88
2023-11-07T10:21:00.118Z,86.29
2023-11-07T10:22:00.856Z,86.18
2023-11-07T10:23:00.171Z,86.18
2023-11-07T10:24:00.344Z,86.38
2023-11-07T10:25:00.265Z,86.29
2023-11-07T10:26:00.044Z,86.49
2023-11-07T10:27:00.736Z,86.38
2023-11-07T10:28:00.061Z,86.49
2023-11-07T10:29:00.008Z,86.49
2023-11-07T10:30:00.620Z,86.49
2023-11-07T10:30:59.981Z,86.49
2023-11-07T10:31:59.992Z,86.44
2023-11-07T10:33:01.002Z,86.55
2023-11-07T10:34:00.102Z,86.24
2023-11-07T10:34:59.937Z,86.24
2023-11-07T10:36:00.232Z,86.04
2023-11-07T10:36:59.933Z,85.42
2023-11-07T10:37:59.952Z,85.12
2023-11-07T10:38:59.922Z,84.09
2023-11-07T10:39:59.924Z,83.28
2023-11-07T10:41:01.826Z,83.59
2023-11-07T10:41:59.905Z,83.85
2023-11-07T10:42:59.837Z,83.95
2023-11-07T10:44:00.833Z,83.44
2023-11-07T10:44:59.902Z,83.54
2023-11-07T10:45:59.831Z,83.65
2023-11-07T10:46:59.816Z,83.65
2023-11-07T10:47:59.908Z,83.54
2023-11-07T10:48:59.845Z,83.75
2023-11-07T10:49:59.803Z,83.75
2023-11-07T10:50:59.811Z,83.75
2023-11-07T10:51:59.772Z,83.14
2023-11-07T10:52:59.735Z,83.24
2023-11-07T10:53:59.759Z,83.24
2023-11-07T10:54:59.750Z,83.34
2023-11-07T10:55:59.723Z,83.14
2023-11-07T10:56:59.963Z,83.04
2023-11-07T10:57:59.697Z,83.28
2023-11-07T10:58:59.674Z,83.28
2023-11-07T11:00:00.830Z,83.07
2023-11-07T11:00:59.638Z,83.48
2023-11-07T11:01:59.677Z,83.59
2023-11-07T11:03:00.443Z,83.69
2023-11-07T11:04:01.774Z,83.69
2023-11-07T11:04:59.633Z,83.59
2023-11-07T11:05:59.758Z,83.79
2023-11-07T11:06:59.702Z,83.89
2023-11-07T11:07:59.589Z,84.30
2023-11-07T11:08:59.589Z,84.71
2023-11-07T11:09:59.606Z,84.71
2023-11-07T11:10:59.552Z,85.22
2023-11-07T11:11:59.583Z,84.61
2023-11-07T11:12:59.533Z,84.71
2023-11-07T11:13:59.533Z,84.91
2023-11-07T11:14:59.704Z,84.91
2023-11-07T11:15:59.509Z,85.22
2023-11-07T11:16:59.489Z,85.42
2023-11-07T11:17:59.680Z,85.53
2023-11-07T11:18:59.617Z,85.69
2023-11-07T11:19:59.633Z,86.20
2023-11-07T11:20:59.549Z,86.20
2023-11-07T11:21:59.486Z,86.41
2023-11-07T11:22:59.411Z,86.51
2023-11-07T11:23:59.445Z,86.41
2023-11-07T11:24:59.434Z,86.30
2023-11-07T11:25:59.389Z,86.00
2023-11-07T11:26:59.358Z,85.89
2023-11-07T11:27:59.437Z,86.10
2023-11-07T11:28:59.505Z,86.16
2023-11-07T11:29:59.382Z,85.96
2023-11-07T11:30:59.298Z,85.96
2023-11-07T11:32:01.291Z,85.65
2023-11-07T11:32:59.435Z,85.41
2023-11-07T11:34:00.287Z,84.08
2023-11-07T11:35:01.262Z,83.78
2023-11-07T11:35:59.316Z,83.78
2023-11-07T11:36:59.358Z,83.67
2023-11-07T11:38:01.235Z,83.67
2023-11-07T11:39:01.263Z,82.96
2023-11-07T11:39:59.482Z,82.86
2023-11-07T11:40:59.200Z,82.45
2023-11-07T11:41:59.369Z,82.24
2023-11-07T11:42:59.927Z,82.24
2023-11-07T11:43:59.188Z,82.35
2023-11-07T11:44:59.197Z,82.04
2023-11-07T11:45:59.201Z,81.73
2023-11-07T11:46:59.133Z,81.63
2023-11-07T11:47:59.199Z,81.63
2023-11-07T11:48:59.237Z,81.12
2023-11-07T11:49:59.139Z,81.02
2023-11-07T11:50:59.162Z,81.02
2023-11-07T11:51:59.128Z,81.12
2023-11-07T11:52:59.089Z,80.91
2023-11-07T11:54:00.088Z,81.32
2023-11-07T11:54:59.046Z,81.12
2023-11-07T11:55:59.139Z,80.71
2023-11-07T11:56:59.066Z,80.82
2023-11-07T11:57:59.076Z,80.71
2023-11-07T11:58:59.043Z,80.71
2023-11-07T11:59:59.114Z,80.71
2023-11-07T12:00:59.151Z,80.82
2023-11-07T12:01:59.039Z,80.82
2023-11-07T12:02:59.054Z,80.57
2023-11-07T12:03:59.091Z,80.27
2023-11-07T12:05:00.163Z,79.86
2023-11-07T12:05:59.029Z,79.66
2023-11-07T12:06:59.002Z,79.55
2023-11-07T12:07:58.981Z,79.14
2023-11-07T12:08:58.903Z,79.25
2023-11-07T12:09:58.930Z,79.66
2023-11-07T12:10:58.923Z,79.86
2023-11-07T12:11:59.005Z,79.86
2023-11-07T12:12:58.849Z,79.75
2023-11-07T12:13:58.900Z,80.07
2023-11-07T12:14:58.861Z,79.96
2023-11-07T12:15:58.843Z,79.80
2023-11-07T12:16:59.782Z,80.10
2023-11-07T12:17:58.950Z,80.30
2023-11-07T12:18:58.937Z,80.61
2023-11-07T12:19:58.794Z,80.71
2023-11-07T12:20:58.809Z,80.91
2023-11-07T12:21:58.795Z,80.91
2023-11-07T12:22:58.780Z,80.91
2023-11-07T12:23:58.861Z,81.02
2023-11-07T12:24:58.722Z,80.78
2023-11-07T12:25:58.744Z,80.57
2023-11-07T12:26:58.732Z,80.68
2023-11-07T12:27:58.867Z,80.68
2023-11-07T12:28:58.667Z,80.16
2023-11-07T12:29:58.742Z,80.07
2023-11-07T12:30:58.647Z,79.82
2023-11-07T12:31:58.673Z,79.72
2023-11-07T12:32:58.707Z,79.82
2023-11-07T12:33:58.696Z,80.23
2023-11-07T12:34:58.613Z,80.33
2023-11-07T12:35:58.693Z,80.27
2023-11-07T12:36:58.616Z,80.23
2023-11-07T12:37:58.605Z,80.07
2023-11-07T12:38:58.659Z,79.35
2023-11-07T12:40:00.274Z,79.55
2023-11-07T12:40:58.538Z,79.45
2023-11-07T12:41:58.572Z,79.45
2023-11-07T12:42:59.212Z,79.66
2023-11-07T12:43:58.535Z,79.66
2023-11-07T12:44:58.533Z,79.52
2023-11-07T12:45:58.551Z,79.35
2023-11-07T12:46:58.495Z,79.25
2023-11-07T12:47:58.664Z,78.94
2023-11-07T12:48:58.680Z,78.64
2023-11-07T12:49:58.517Z,78.84
2023-11-07T12:50:58.474Z,79.25
2023-11-07T12:51:58.455Z,79.45
2023-11-07T12:52:58.447Z,79.35